sensor_id;sensor_type;location;lat;lon;timestamp;P1;durP1;ratioP1;P2;durP2;ratioP2
41927;SDS011;27616;51.420;6.788;2024-02-15T00:02:06;9.30;;;4.22;;
41927;SDS011;27616;51.420;6.788;2024-02-15T00:04:32;8.20;;;4.60;;
41927;SDS011;27616;51.420;6.788;2024-02-15T00:06:58;9.60;;;4.53;;
41927;SDS011;27616;51.420;6.788;2024-02-15T00:09:25;7.28;;;4.00;;
41927;SDS011;27616;51.420;6.788;2024-02-15T00:11:50;10.32;;;4.80;;
41927;SDS011;27616;51.420;6.788;2024-02-15T00:14:16;8.07;;;4.07;;
41927;SDS011;27616;51.420;6.788;2024-02-15T00:16:42;10.13;;;4.85;;
41927;SDS011;27616;51.420;6.788;2024-02-15T00:19:07;10.73;;;4.80;;
41927;SDS011;27616;51.420;6.788;2024-02-15T00:21:33;13.10;;;5.20;;
41927;SDS011;27616;51.420;6.788;2024-02-15T00:24:00;13.98;;;5.15;;
41927;SDS011;27616;51.420;6.788;2024-02-15T00:26:25;12.48;;;5.45;;
41927;SDS011;27616;51.420;6.788;2024-02-15T00:28:51;10.02;;;4.57;;
41927;SDS011;27616;51.420;6.788;2024-02-15T00:31:17;14.38;;;5.50;;
41927;SDS011;27616;51.420;6.788;2024-02-15T00:33:43;13.93;;;5.28;;
41927;SDS011;27616;51.420;6.788;2024-02-15T00:36:09;13.90;;;5.53;;
41927;SDS011;27616;51.420;6.788;2024-02-15T00:38:35;14.57;;;5.35;;
41927;SDS011;27616;51.420;6.788;2024-02-15T00:41:01;10.80;;;5.22;;
41927;SDS011;27616;51.420;6.788;2024-02-15T00:43:27;10.60;;;5.07;;
41927;SDS011;27616;51.420;6.788;2024-02-15T00:45:53;13.25;;;5.32;;
41927;SDS011;27616;51.420;6.788;2024-02-15T00:48:18;10.80;;;5.70;;
41927;SDS011;27616;51.420;6.788;2024-02-15T00:50:44;10.02;;;5.85;;
41927;SDS011;27616;51.420;6.788;2024-02-15T00:53:10;15.75;;;5.80;;
41927;SDS011;27616;51.420;6.788;2024-02-15T00:55:35;14.23;;;5.75;;
41927;SDS011;27616;51.420;6.788;2024-02-15T00:58:01;15.57;;;6.38;;
41927;SDS011;27616;51.420;6.788;2024-02-15T01:00:27;17.50;;;6.45;;
41927;SDS011;27616;51.420;6.788;2024-02-15T01:02:53;12.68;;;6.00;;
41927;SDS011;27616;51.420;6.788;2024-02-15T01:05:20;12.98;;;6.80;;
41927;SDS011;27616;51.420;6.788;2024-02-15T01:07:47;15.98;;;6.82;;
41927;SDS011;27616;51.420;6.788;2024-02-15T01:10:14;15.45;;;6.47;;
41927;SDS011;27616;51.420;6.788;2024-02-15T01:12:40;11.63;;;6.07;;
41927;SDS011;27616;51.420;6.788;2024-02-15T01:15:06;13.85;;;5.95;;
41927;SDS011;27616;51.420;6.788;2024-02-15T01:17:32;13.30;;;5.38;;
41927;SDS011;27616;51.420;6.788;2024-02-15T01:19:57;12.02;;;5.78;;
41927;SDS011;27616;51.420;6.788;2024-02-15T01:22:23;13.82;;;5.13;;
41927;SDS011;27616;51.420;6.788;2024-02-15T01:24:52;10.82;;;4.82;;
41927;SDS011;27616;51.420;6.788;2024-02-15T01:27:18;9.60;;;4.68;;
41927;SDS011;27616;51.420;6.788;2024-02-15T01:29:44;13.25;;;5.30;;
41927;SDS011;27616;51.420;6.788;2024-02-15T01:32:10;10.13;;;4.57;;
41927;SDS011;27616;51.420;6.788;2024-02-15T01:34:36;12.80;;;4.70;;
41927;SDS011;27616;51.420;6.788;2024-02-15T01:37:02;11.38;;;5.05;;
41927;SDS011;27616;51.420;6.788;2024-02-15T01:39:27;8.40;;;4.40;;
41927;SDS011;27616;51.420;6.788;2024-02-15T01:41:53;10.77;;;4.72;;
41927;SDS011;27616;51.420;6.788;2024-02-15T01:44:21;11.75;;;4.72;;
41927;SDS011;27616;51.420;6.788;2024-02-15T01:46:49;9.30;;;4.40;;
41927;SDS011;27616;51.420;6.788;2024-02-15T01:49:17;8.68;;;4.88;;
41927;SDS011;27616;51.420;6.788;2024-02-15T01:51:43;10.82;;;4.57;;
41927;SDS011;27616;51.420;6.788;2024-02-15T01:54:12;11.60;;;4.55;;
41927;SDS011;27616;51.420;6.788;2024-02-15T01:56:42;8.25;;;4.10;;
41927;SDS011;27616;51.420;6.788;2024-02-15T01:59:08;8.43;;;3.88;;
41927;SDS011;27616;51.420;6.788;2024-02-15T02:01:37;11.82;;;4.28;;
41927;SDS011;27616;51.420;6.788;2024-02-15T02:04:03;12.82;;;4.20;;
41927;SDS011;27616;51.420;6.788;2024-02-15T02:06:29;9.73;;;4.07;;
41927;SDS011;27616;51.420;6.788;2024-02-15T02:08:55;8.82;;;4.20;;
41927;SDS011;27616;51.420;6.788;2024-02-15T02:11:22;10.40;;;4.17;;
41927;SDS011;27616;51.420;6.788;2024-02-15T02:13:48;13.40;;;4.78;;
41927;SDS011;27616;51.420;6.788;2024-02-15T02:16:30;9.70;;;3.40;;
41927;SDS011;27616;51.420;6.788;2024-02-15T02:19:00;13.77;;;4.05;;
41927;SDS011;27616;51.420;6.788;2024-02-15T02:21:26;7.47;;;3.65;;
41927;SDS011;27616;51.420;6.788;2024-02-15T02:23:56;11.05;;;3.38;;
41927;SDS011;27616;51.420;6.788;2024-02-15T02:26:23;8.70;;;3.55;;
41927;SDS011;27616;51.420;6.788;2024-02-15T02:28:49;10.18;;;3.53;;
41927;SDS011;27616;51.420;6.788;2024-02-15T02:31:15;9.95;;;3.60;;
41927;SDS011;27616;51.420;6.788;2024-02-15T02:33:41;7.88;;;3.28;;
41927;SDS011;27616;51.420;6.788;2024-02-15T02:36:12;9.23;;;3.20;;
41927;SDS011;27616;51.420;6.788;2024-02-15T02:38:37;13.13;;;4.40;;
41927;SDS011;27616;51.420;6.788;2024-02-15T02:41:03;10.55;;;3.35;;
41927;SDS011;27616;51.420;6.788;2024-02-15T02:43:29;7.00;;;2.85;;
41927;SDS011;27616;51.420;6.788;2024-02-15T02:45:55;8.98;;;2.97;;
41927;SDS011;27616;51.420;6.788;2024-02-15T02:48:20;9.15;;;3.58;;
41927;SDS011;27616;51.420;6.788;2024-02-15T02:50:47;5.85;;;2.70;;
41927;SDS011;27616;51.420;6.788;2024-02-15T02:53:13;8.38;;;2.90;;
41927;SDS011;27616;51.420;6.788;2024-02-15T02:55:43;7.88;;;3.35;;
41927;SDS011;27616;51.420;6.788;2024-02-15T02:58:09;9.93;;;3.08;;
41927;SDS011;27616;51.420;6.788;2024-02-15T03:00:34;7.55;;;2.85;;
41927;SDS011;27616;51.420;6.788;2024-02-15T03:03:00;6.57;;;2.95;;
41927;SDS011;27616;51.420;6.788;2024-02-15T03:05:26;10.20;;;2.83;;
41927;SDS011;27616;51.420;6.788;2024-02-15T03:07:52;7.40;;;2.75;;
41927;SDS011;27616;51.420;6.788;2024-02-15T03:10:18;9.80;;;3.17;;
41927;SDS011;27616;51.420;6.788;2024-02-15T03:12:44;7.72;;;2.80;;
41927;SDS011;27616;51.420;6.788;2024-02-15T03:15:12;8.82;;;2.63;;
41927;SDS011;27616;51.420;6.788;2024-02-15T03:17:40;7.63;;;2.95;;
41927;SDS011;27616;51.420;6.788;2024-02-15T03:20:08;7.65;;;2.60;;
41927;SDS011;27616;51.420;6.788;2024-02-15T03:22:37;9.23;;;2.70;;
41927;SDS011;27616;51.420;6.788;2024-02-15T03:25:04;8.20;;;2.47;;
41927;SDS011;27616;51.420;6.788;2024-02-15T03:27:33;7.53;;;2.50;;
41927;SDS011;27616;51.420;6.788;2024-02-15T03:30:00;5.50;;;2.70;;
41927;SDS011;27616;51.420;6.788;2024-02-15T03:32:26;4.90;;;2.13;;
41927;SDS011;27616;51.420;6.788;2024-02-15T03:34:52;5.35;;;2.35;;
41927;SDS011;27616;51.420;6.788;2024-02-15T03:37:19;7.45;;;2.28;;
41927;SDS011;27616;51.420;6.788;2024-02-15T03:39:45;7.88;;;2.65;;
41927;SDS011;27616;51.420;6.788;2024-02-15T03:42:12;6.85;;;2.33;;
41927;SDS011;27616;51.420;6.788;2024-02-15T03:44:37;12.07;;;2.35;;
41927;SDS011;27616;51.420;6.788;2024-02-15T03:47:04;8.85;;;2.40;;
41927;SDS011;27616;51.420;6.788;2024-02-15T03:49:30;5.30;;;2.30;;
41927;SDS011;27616;51.420;6.788;2024-02-15T03:51:57;7.32;;;2.17;;
41927;SDS011;27616;51.420;6.788;2024-02-15T03:54:24;7.05;;;2.17;;
41927;SDS011;27616;51.420;6.788;2024-02-15T03:56:50;6.65;;;2.70;;
41927;SDS011;27616;51.420;6.788;2024-02-15T03:59:20;6.20;;;2.63;;
41927;SDS011;27616;51.420;6.788;2024-02-15T04:01:51;7.80;;;2.63;;
41927;SDS011;27616;51.420;6.788;2024-02-15T04:04:20;8.80;;;3.03;;
41927;SDS011;27616;51.420;6.788;2024-02-15T04:06:47;6.18;;;2.45;;
41927;SDS011;27616;51.420;6.788;2024-02-15T04:09:13;6.15;;;3.03;;
41927;SDS011;27616;51.420;6.788;2024-02-15T04:11:39;9.48;;;3.33;;
41927;SDS011;27616;51.420;6.788;2024-02-15T04:14:05;9.35;;;3.53;;
41927;SDS011;27616;51.420;6.788;2024-02-15T04:16:31;4.72;;;2.70;;
41927;SDS011;27616;51.420;6.788;2024-02-15T04:18:58;7.03;;;3.33;;
41927;SDS011;27616;51.420;6.788;2024-02-15T04:21:24;11.07;;;3.28;;
41927;SDS011;27616;51.420;6.788;2024-02-15T04:23:52;8.43;;;3.40;;
41927;SDS011;27616;51.420;6.788;2024-02-15T04:26:20;6.38;;;2.72;;
41927;SDS011;27616;51.420;6.788;2024-02-15T04:28:46;6.30;;;2.88;;
41927;SDS011;27616;51.420;6.788;2024-02-15T04:31:17;7.93;;;3.30;;
41927;SDS011;27616;51.420;6.788;2024-02-15T04:33:43;6.07;;;2.90;;
41927;SDS011;27616;51.420;6.788;2024-02-15T04:36:08;6.47;;;2.92;;
41927;SDS011;27616;51.420;6.788;2024-02-15T04:38:34;7.18;;;3.00;;
41927;SDS011;27616;51.420;6.788;2024-02-15T04:41:03;9.90;;;3.55;;
41927;SDS011;27616;51.420;6.788;2024-02-15T04:43:34;6.85;;;2.88;;
41927;SDS011;27616;51.420;6.788;2024-02-15T04:46:03;7.38;;;3.40;;
41927;SDS011;27616;51.420;6.788;2024-02-15T04:48:32;5.63;;;3.10;;
41927;SDS011;27616;51.420;6.788;2024-02-15T04:50:59;11.68;;;2.95;;
41927;SDS011;27616;51.420;6.788;2024-02-15T04:53:26;8.60;;;3.13;;
41927;SDS011;27616;51.420;6.788;2024-02-15T04:55:55;6.90;;;2.88;;
41927;SDS011;27616;51.420;6.788;2024-02-15T04:58:20;5.65;;;3.25;;
41927;SDS011;27616;51.420;6.788;2024-02-15T05:00:46;5.80;;;2.92;;
41927;SDS011;27616;51.420;6.788;2024-02-15T05:03:13;6.53;;;2.60;;
41927;SDS011;27616;51.420;6.788;2024-02-15T05:05:39;7.60;;;2.57;;
41927;SDS011;27616;51.420;6.788;2024-02-15T05:08:05;6.97;;;2.70;;
41927;SDS011;27616;51.420;6.788;2024-02-15T05:10:30;6.63;;;2.90;;
41927;SDS011;27616;51.420;6.788;2024-02-15T05:12:56;8.82;;;2.72;;
41927;SDS011;27616;51.420;6.788;2024-02-15T05:15:22;5.28;;;2.40;;
41927;SDS011;27616;51.420;6.788;2024-02-15T05:17:50;5.38;;;2.15;;
41927;SDS011;27616;51.420;6.788;2024-02-15T05:20:15;7.22;;;2.75;;
41927;SDS011;27616;51.420;6.788;2024-02-15T05:22:41;4.20;;;2.67;;
41927;SDS011;27616;51.420;6.788;2024-02-15T05:25:16;4.00;;;2.07;;
41927;SDS011;27616;51.420;6.788;2024-02-15T05:27:47;7.10;;;2.33;;
41927;SDS011;27616;51.420;6.788;2024-02-15T05:30:13;6.22;;;2.50;;
41927;SDS011;27616;51.420;6.788;2024-02-15T05:32:39;5.28;;;2.38;;
41927;SDS011;27616;51.420;6.788;2024-02-15T05:35:10;4.00;;;2.33;;
41927;SDS011;27616;51.420;6.788;2024-02-15T05:37:37;7.03;;;2.45;;
41927;SDS011;27616;51.420;6.788;2024-02-15T05:40:03;4.28;;;2.20;;
41927;SDS011;27616;51.420;6.788;2024-02-15T05:42:29;6.47;;;2.47;;
41927;SDS011;27616;51.420;6.788;2024-02-15T05:44:56;5.15;;;1.98;;
41927;SDS011;27616;51.420;6.788;2024-02-15T05:47:44;4.05;;;2.13;;
41927;SDS011;27616;51.420;6.788;2024-02-15T05:50:10;5.93;;;1.92;;
41927;SDS011;27616;51.420;6.788;2024-02-15T05:52:35;5.30;;;2.17;;
41927;SDS011;27616;51.420;6.788;2024-02-15T05:55:01;5.70;;;1.92;;
41927;SDS011;27616;51.420;6.788;2024-02-15T05:57:27;7.90;;;1.83;;
41927;SDS011;27616;51.420;6.788;2024-02-15T05:59:54;9.40;;;2.20;;
41927;SDS011;27616;51.420;6.788;2024-02-15T06:02:19;6.13;;;2.00;;
41927;SDS011;27616;51.420;6.788;2024-02-15T06:04:45;4.88;;;1.77;;
41927;SDS011;27616;51.420;6.788;2024-02-15T06:07:11;4.60;;;2.28;;
41927;SDS011;27616;51.420;6.788;2024-02-15T06:09:36;4.53;;;2.05;;
41927;SDS011;27616;51.420;6.788;2024-02-15T06:12:05;6.05;;;2.70;;
41927;SDS011;27616;51.420;6.788;2024-02-15T06:14:31;4.55;;;2.10;;
41927;SDS011;27616;51.420;6.788;2024-02-15T06:16:57;7.72;;;2.10;;
41927;SDS011;27616;51.420;6.788;2024-02-15T06:19:23;5.53;;;2.50;;
41927;SDS011;27616;51.420;6.788;2024-02-15T06:21:49;4.53;;;2.25;;
41927;SDS011;27616;51.420;6.788;2024-02-15T06:24:15;6.50;;;2.60;;
41927;SDS011;27616;51.420;6.788;2024-02-15T06:26:40;7.68;;;2.75;;
41927;SDS011;27616;51.420;6.788;2024-02-15T06:29:07;10.00;;;2.70;;
41927;SDS011;27616;51.420;6.788;2024-02-15T06:31:51;5.10;;;3.15;;
41927;SDS011;27616;51.420;6.788;2024-02-15T06:34:35;5.82;;;2.97;;
41927;SDS011;27616;51.420;6.788;2024-02-15T06:37:34;8.70;;;2.50;;
41927;SDS011;27616;51.420;6.788;2024-02-15T06:40:19;7.63;;;3.42;;
41927;SDS011;27616;51.420;6.788;2024-02-15T06:42:45;5.50;;;3.30;;
41927;SDS011;27616;51.420;6.788;2024-02-15T06:45:11;7.80;;;2.63;;
41927;SDS011;27616;51.420;6.788;2024-02-15T06:47:40;7.65;;;3.22;;
41927;SDS011;27616;51.420;6.788;2024-02-15T06:50:09;7.55;;;2.75;;
41927;SDS011;27616;51.420;6.788;2024-02-15T06:52:38;7.43;;;2.42;;
41927;SDS011;27616;51.420;6.788;2024-02-15T06:55:08;5.05;;;2.60;;
41927;SDS011;27616;51.420;6.788;2024-02-15T06:57:37;7.55;;;2.50;;
41927;SDS011;27616;51.420;6.788;2024-02-15T07:00:09;5.88;;;2.47;;
41927;SDS011;27616;51.420;6.788;2024-02-15T07:02:39;6.70;;;3.03;;
41927;SDS011;27616;51.420;6.788;2024-02-15T07:05:06;6.28;;;2.90;;
41927;SDS011;27616;51.420;6.788;2024-02-15T07:07:32;9.27;;;3.07;;
41927;SDS011;27616;51.420;6.788;2024-02-15T07:09:59;7.60;;;2.50;;
41927;SDS011;27616;51.420;6.788;2024-02-15T07:12:25;7.00;;;3.17;;
41927;SDS011;27616;51.420;6.788;2024-02-15T07:14:50;4.63;;;3.00;;
41927;SDS011;27616;51.420;6.788;2024-02-15T07:17:16;6.65;;;3.10;;
41927;SDS011;27616;51.420;6.788;2024-02-15T07:19:44;5.55;;;2.67;;
41927;SDS011;27616;51.420;6.788;2024-02-15T07:22:14;6.28;;;2.67;;
41927;SDS011;27616;51.420;6.788;2024-02-15T07:24:40;7.00;;;2.83;;
41927;SDS011;27616;51.420;6.788;2024-02-15T07:27:06;8.85;;;2.85;;
41927;SDS011;27616;51.420;6.788;2024-02-15T07:29:31;6.38;;;2.97;;
41927;SDS011;27616;51.420;6.788;2024-02-15T07:32:00;8.50;;;2.83;;
41927;SDS011;27616;51.420;6.788;2024-02-15T07:34:29;7.03;;;2.17;;
41927;SDS011;27616;51.420;6.788;2024-02-15T07:36:55;7.05;;;2.40;;
41927;SDS011;27616;51.420;6.788;2024-02-15T07:39:23;6.60;;;2.58;;
41927;SDS011;27616;51.420;6.788;2024-02-15T07:41:56;5.93;;;2.70;;
41927;SDS011;27616;51.420;6.788;2024-02-15T07:44:25;7.55;;;3.08;;
41927;SDS011;27616;51.420;6.788;2024-02-15T07:46:52;8.40;;;3.08;;
41927;SDS011;27616;51.420;6.788;2024-02-15T07:49:18;5.78;;;2.60;;
41927;SDS011;27616;51.420;6.788;2024-02-15T07:51:44;4.72;;;2.60;;
41927;SDS011;27616;51.420;6.788;2024-02-15T07:54:10;7.22;;;2.90;;
41927;SDS011;27616;51.420;6.788;2024-02-15T07:56:36;6.15;;;2.85;;
41927;SDS011;27616;51.420;6.788;2024-02-15T07:59:03;6.93;;;2.83;;
41927;SDS011;27616;51.420;6.788;2024-02-15T08:01:29;10.50;;;3.17;;
41927;SDS011;27616;51.420;6.788;2024-02-15T08:03:56;6.60;;;2.42;;
41927;SDS011;27616;51.420;6.788;2024-02-15T08:06:22;6.68;;;2.75;;
41927;SDS011;27616;51.420;6.788;2024-02-15T08:08:53;7.15;;;2.67;;
41927;SDS011;27616;51.420;6.788;2024-02-15T08:11:18;6.10;;;2.78;;
41927;SDS011;27616;51.420;6.788;2024-02-15T08:13:44;5.47;;;2.15;;
41927;SDS011;27616;51.420;6.788;2024-02-15T08:16:18;4.93;;;2.13;;
41927;SDS011;27616;51.420;6.788;2024-02-15T08:18:45;8.25;;;2.35;;
41927;SDS011;27616;51.420;6.788;2024-02-15T08:21:12;5.13;;;2.20;;
41927;SDS011;27616;51.420;6.788;2024-02-15T08:23:38;4.63;;;2.30;;
41927;SDS011;27616;51.420;6.788;2024-02-15T08:26:03;5.50;;;2.38;;
41927;SDS011;27616;51.420;6.788;2024-02-15T08:28:29;6.53;;;2.10;;
41927;SDS011;27616;51.420;6.788;2024-02-15T08:30:55;7.85;;;2.22;;
41927;SDS011;27616;51.420;6.788;2024-02-15T08:33:22;6.30;;;2.63;;
41927;SDS011;27616;51.420;6.788;2024-02-15T08:35:48;6.22;;;2.42;;
41927;SDS011;27616;51.420;6.788;2024-02-15T08:38:14;7.50;;;2.65;;
41927;SDS011;27616;51.420;6.788;2024-02-15T08:40:39;6.15;;;2.38;;
41927;SDS011;27616;51.420;6.788;2024-02-15T08:43:05;6.50;;;2.75;;
41927;SDS011;27616;51.420;6.788;2024-02-15T08:45:31;4.82;;;2.35;;
41927;SDS011;27616;51.420;6.788;2024-02-15T08:47:56;5.35;;;2.20;;
41927;SDS011;27616;51.420;6.788;2024-02-15T08:50:22;7.17;;;2.60;;
41927;SDS011;27616;51.420;6.788;2024-02-15T08:52:48;4.87;;;2.70;;
41927;SDS011;27616;51.420;6.788;2024-02-15T08:55:15;6.43;;;3.00;;
41927;SDS011;27616;51.420;6.788;2024-02-15T08:57:42;5.83;;;2.50;;
41927;SDS011;27616;51.420;6.788;2024-02-15T09:00:09;9.25;;;2.72;;
41927;SDS011;27616;51.420;6.788;2024-02-15T09:02:39;9.02;;;2.65;;
41927;SDS011;27616;51.420;6.788;2024-02-15T09:05:05;7.20;;;2.42;;
41927;SDS011;27616;51.420;6.788;2024-02-15T09:07:31;9.37;;;2.70;;
41927;SDS011;27616;51.420;6.788;2024-02-15T09:09:57;5.85;;;2.42;;
41927;SDS011;27616;51.420;6.788;2024-02-15T09:12:23;11.53;;;3.50;;
41927;SDS011;27616;51.420;6.788;2024-02-15T09:14:49;9.90;;;4.40;;
41927;SDS011;27616;51.420;6.788;2024-02-15T09:17:14;14.48;;;6.80;;
41927;SDS011;27616;51.420;6.788;2024-02-15T09:19:40;9.50;;;3.60;;
41927;SDS011;27616;51.420;6.788;2024-02-15T09:22:06;5.00;;;2.70;;
41927;SDS011;27616;51.420;6.788;2024-02-15T09:24:32;7.63;;;2.50;;
41927;SDS011;27616;51.420;6.788;2024-02-15T09:27:01;4.95;;;2.50;;
41927;SDS011;27616;51.420;6.788;2024-02-15T09:29:28;9.85;;;2.83;;
41927;SDS011;27616;51.420;6.788;2024-02-15T09:31:59;4.63;;;2.20;;
41927;SDS011;27616;51.420;6.788;2024-02-15T09:34:28;4.55;;;2.40;;
41927;SDS011;27616;51.420;6.788;2024-02-15T09:36:53;6.50;;;2.40;;
41927;SDS011;27616;51.420;6.788;2024-02-15T09:39:20;3.70;;;2.13;;
41927;SDS011;27616;51.420;6.788;2024-02-15T09:41:46;6.75;;;1.98;;
41927;SDS011;27616;51.420;6.788;2024-02-15T09:44:15;8.35;;;1.70;;
41927;SDS011;27616;51.420;6.788;2024-02-15T09:46:44;5.07;;;1.75;;
41927;SDS011;27616;51.420;6.788;2024-02-15T09:49:15;4.53;;;1.90;;
41927;SDS011;27616;51.420;6.788;2024-02-15T09:51:41;4.18;;;1.83;;
41927;SDS011;27616;51.420;6.788;2024-02-15T09:54:07;3.20;;;1.35;;
41927;SDS011;27616;51.420;6.788;2024-02-15T09:56:34;5.28;;;2.25;;
41927;SDS011;27616;51.420;6.788;2024-02-15T09:59:00;7.75;;;1.80;;
41927;SDS011;27616;51.420;6.788;2024-02-15T10:01:27;4.22;;;1.80;;
41927;SDS011;27616;51.420;6.788;2024-02-15T10:03:55;4.10;;;2.17;;
41927;SDS011;27616;51.420;6.788;2024-02-15T10:06:24;10.27;;;1.77;;
41927;SDS011;27616;51.420;6.788;2024-02-15T10:08:50;6.05;;;2.10;;
41927;SDS011;27616;51.420;6.788;2024-02-15T10:11:15;5.00;;;2.00;;
41927;SDS011;27616;51.420;6.788;2024-02-15T10:13:41;3.47;;;1.30;;
41927;SDS011;27616;51.420;6.788;2024-02-15T10:16:16;4.32;;;1.80;;
41927;SDS011;27616;51.420;6.788;2024-02-15T10:18:45;3.88;;;1.80;;
41927;SDS011;27616;51.420;6.788;2024-02-15T10:21:24;4.30;;;1.35;;
41927;SDS011;27616;51.420;6.788;2024-02-15T10:24:02;3.58;;;2.13;;
41927;SDS011;27616;51.420;6.788;2024-02-15T10:26:31;5.60;;;1.60;;
41927;SDS011;27616;51.420;6.788;2024-02-15T10:31:34;3.97;;;1.30;;
41927;SDS011;27616;51.420;6.788;2024-02-15T10:34:02;4.07;;;1.52;;
41927;SDS011;27616;51.420;6.788;2024-02-15T10:36:30;4.45;;;1.85;;
41927;SDS011;27616;51.420;6.788;2024-02-15T10:39:11;5.63;;;1.48;;
41927;SDS011;27616;51.420;6.788;2024-02-15T10:41:45;4.15;;;1.20;;
41927;SDS011;27616;51.420;6.788;2024-02-15T10:44:18;6.95;;;1.88;;
41927;SDS011;27616;51.420;6.788;2024-02-15T10:46:51;3.20;;;1.13;;
41927;SDS011;27616;51.420;6.788;2024-02-15T10:49:19;4.30;;;1.67;;
41927;SDS011;27616;51.420;6.788;2024-02-15T10:51:55;6.32;;;1.65;;
41927;SDS011;27616;51.420;6.788;2024-02-15T10:54:31;4.93;;;1.92;;
41927;SDS011;27616;51.420;6.788;2024-02-15T10:57:21;4.00;;;1.50;;
41927;SDS011;27616;51.420;6.788;2024-02-15T10:59:55;6.78;;;1.85;;
41927;SDS011;27616;51.420;6.788;2024-02-15T11:02:36;5.50;;;1.70;;
41927;SDS011;27616;51.420;6.788;2024-02-15T11:05:06;2.28;;;1.10;;
41927;SDS011;27616;51.420;6.788;2024-02-15T11:07:35;9.07;;;1.60;;
41927;SDS011;27616;51.420;6.788;2024-02-15T11:10:01;6.70;;;2.10;;
41927;SDS011;27616;51.420;6.788;2024-02-15T11:12:33;3.80;;;1.73;;
41927;SDS011;27616;51.420;6.788;2024-02-15T11:14:59;4.90;;;1.58;;
41927;SDS011;27616;51.420;6.788;2024-02-15T11:20:08;5.25;;;1.75;;
41927;SDS011;27616;51.420;6.788;2024-02-15T11:22:36;7.03;;;1.92;;
41927;SDS011;27616;51.420;6.788;2024-02-15T11:25:02;3.78;;;1.42;;
41927;SDS011;27616;51.420;6.788;2024-02-15T11:27:40;4.50;;;1.48;;
41927;SDS011;27616;51.420;6.788;2024-02-15T11:30:06;5.07;;;1.45;;
41927;SDS011;27616;51.420;6.788;2024-02-15T11:32:49;3.67;;;1.30;;
41927;SDS011;27616;51.420;6.788;2024-02-15T11:35:17;6.90;;;1.35;;
41927;SDS011;27616;51.420;6.788;2024-02-15T11:40:24;5.35;;;1.20;;
41927;SDS011;27616;51.420;6.788;2024-02-15T11:42:54;2.83;;;1.10;;
41927;SDS011;27616;51.420;6.788;2024-02-15T11:45:28;5.15;;;1.27;;
41927;SDS011;27616;51.420;6.788;2024-02-15T11:48:09;3.13;;;1.70;;
41927;SDS011;27616;51.420;6.788;2024-02-15T11:50:39;4.00;;;1.60;;
41927;SDS011;27616;51.420;6.788;2024-02-15T11:53:06;4.40;;;1.80;;
41927;SDS011;27616;51.420;6.788;2024-02-15T11:55:38;5.35;;;1.65;;
41927;SDS011;27616;51.420;6.788;2024-02-15T11:58:05;4.03;;;1.30;;
41927;SDS011;27616;51.420;6.788;2024-02-15T12:00:34;3.17;;;1.50;;
41927;SDS011;27616;51.420;6.788;2024-02-15T12:03:19;5.35;;;2.47;;
41927;SDS011;27616;51.420;6.788;2024-02-15T12:06:04;2.42;;;1.35;;
41927;SDS011;27616;51.420;6.788;2024-02-15T12:08:48;5.43;;;1.45;;
41927;SDS011;27616;51.420;6.788;2024-02-15T12:11:34;5.50;;;1.17;;
41927;SDS011;27616;51.420;6.788;2024-02-15T12:14:19;3.03;;;1.27;;
41927;SDS011;27616;51.420;6.788;2024-02-15T12:17:10;5.13;;;1.67;;
41927;SDS011;27616;51.420;6.788;2024-02-15T12:19:56;3.95;;;1.33;;
41927;SDS011;27616;51.420;6.788;2024-02-15T12:22:24;3.38;;;1.23;;
41927;SDS011;27616;51.420;6.788;2024-02-15T12:25:16;7.75;;;1.55;;
41927;SDS011;27616;51.420;6.788;2024-02-15T12:27:46;16.15;;;7.97;;
41927;SDS011;27616;51.420;6.788;2024-02-15T12:30:17;10.40;;;4.10;;
41927;SDS011;27616;51.420;6.788;2024-02-15T12:32:46;5.13;;;1.25;;
41927;SDS011;27616;51.420;6.788;2024-02-15T12:35:13;5.00;;;2.00;;
41927;SDS011;27616;51.420;6.788;2024-02-15T12:37:47;2.55;;;1.35;;
41927;SDS011;27616;51.420;6.788;2024-02-15T12:40:29;5.57;;;1.45;;
41927;SDS011;27616;51.420;6.788;2024-02-15T12:42:59;2.50;;;0.90;;
41927;SDS011;27616;51.420;6.788;2024-02-15T12:45:25;3.40;;;1.15;;
41927;SDS011;27616;51.420;6.788;2024-02-15T12:47:55;5.07;;;1.38;;
41927;SDS011;27616;51.420;6.788;2024-02-15T12:50:22;5.20;;;1.20;;
41927;SDS011;27616;51.420;6.788;2024-02-15T12:52:49;4.57;;;1.30;;
41927;SDS011;27616;51.420;6.788;2024-02-15T12:57:42;3.83;;;1.30;;
41927;SDS011;27616;51.420;6.788;2024-02-15T13:00:14;5.30;;;1.52;;
41927;SDS011;27616;51.420;6.788;2024-02-15T13:02:46;1.67;;;0.90;;
41927;SDS011;27616;51.420;6.788;2024-02-15T13:05:19;1.90;;;1.08;;
41927;SDS011;27616;51.420;6.788;2024-02-15T13:07:47;3.63;;;1.40;;
41927;SDS011;27616;51.420;6.788;2024-02-15T13:10:13;1.73;;;0.98;;
41927;SDS011;27616;51.420;6.788;2024-02-15T13:15:15;2.60;;;0.98;;
41927;SDS011;27616;51.420;6.788;2024-02-15T13:17:46;2.75;;;0.82;;
41927;SDS011;27616;51.420;6.788;2024-02-15T13:20:14;5.50;;;1.27;;
41927;SDS011;27616;51.420;6.788;2024-02-15T13:22:42;3.83;;;1.10;;
41927;SDS011;27616;51.420;6.788;2024-02-15T13:27:35;4.35;;;1.00;;
41927;SDS011;27616;51.420;6.788;2024-02-15T13:30:03;1.85;;;0.95;;
41927;SDS011;27616;51.420;6.788;2024-02-15T13:32:33;4.47;;;1.10;;
41927;SDS011;27616;51.420;6.788;2024-02-15T13:35:06;2.75;;;1.10;;
41927;SDS011;27616;51.420;6.788;2024-02-15T13:37:39;5.10;;;1.08;;
41927;SDS011;27616;51.420;6.788;2024-02-15T13:40:07;2.80;;;1.52;;
41927;SDS011;27616;51.420;6.788;2024-02-15T13:42:43;3.15;;;1.02;;
41927;SDS011;27616;51.420;6.788;2024-02-15T13:45:17;4.82;;;1.13;;
41927;SDS011;27616;51.420;6.788;2024-02-15T13:48:04;3.85;;;1.33;;
41927;SDS011;27616;51.420;6.788;2024-02-15T13:50:32;4.10;;;1.10;;
41927;SDS011;27616;51.420;6.788;2024-02-15T13:52:58;3.47;;;1.20;;
41927;SDS011;27616;51.420;6.788;2024-02-15T13:55:24;3.13;;;1.00;;
41927;SDS011;27616;51.420;6.788;2024-02-15T13:57:50;3.47;;;0.90;;
41927;SDS011;27616;51.420;6.788;2024-02-15T14:00:17;1.38;;;0.70;;
41927;SDS011;27616;51.420;6.788;2024-02-15T14:02:47;3.00;;;1.10;;
41927;SDS011;27616;51.420;6.788;2024-02-15T14:05:24;3.85;;;1.20;;
41927;SDS011;27616;51.420;6.788;2024-02-15T14:07:54;4.50;;;1.17;;
41927;SDS011;27616;51.420;6.788;2024-02-15T14:10:31;2.67;;;1.08;;
41927;SDS011;27616;51.420;6.788;2024-02-15T14:12:58;2.75;;;1.08;;
41927;SDS011;27616;51.420;6.788;2024-02-15T14:15:25;2.67;;;0.90;;
41927;SDS011;27616;51.420;6.788;2024-02-15T14:17:51;3.83;;;1.52;;
41927;SDS011;27616;51.420;6.788;2024-02-15T14:20:17;5.05;;;1.05;;
41927;SDS011;27616;51.420;6.788;2024-02-15T14:22:48;3.10;;;1.15;;
41927;SDS011;27616;51.420;6.788;2024-02-15T14:25:21;4.15;;;0.98;;
41927;SDS011;27616;51.420;6.788;2024-02-15T14:27:47;2.67;;;0.80;;
41927;SDS011;27616;51.420;6.788;2024-02-15T14:30:15;4.10;;;1.45;;
41927;SDS011;27616;51.420;6.788;2024-02-15T14:33:00;1.85;;;0.90;;
41927;SDS011;27616;51.420;6.788;2024-02-15T14:35:32;2.47;;;0.88;;
41927;SDS011;27616;51.420;6.788;2024-02-15T14:38:06;3.03;;;1.00;;
41927;SDS011;27616;51.420;6.788;2024-02-15T14:40:35;1.98;;;0.90;;
41927;SDS011;27616;51.420;6.788;2024-02-15T14:43:02;4.80;;;0.88;;
41927;SDS011;27616;51.420;6.788;2024-02-15T14:45:32;3.67;;;0.95;;
41927;SDS011;27616;51.420;6.788;2024-02-15T14:47:59;2.40;;;0.75;;
41927;SDS011;27616;51.420;6.788;2024-02-15T14:50:25;2.08;;;0.90;;
41927;SDS011;27616;51.420;6.788;2024-02-15T14:52:51;4.35;;;1.15;;
41927;SDS011;27616;51.420;6.788;2024-02-15T14:55:18;3.47;;;0.80;;
41927;SDS011;27616;51.420;6.788;2024-02-15T14:57:44;4.28;;;1.10;;
41927;SDS011;27616;51.420;6.788;2024-02-15T15:00:11;2.38;;;0.95;;
41927;SDS011;27616;51.420;6.788;2024-02-15T15:02:43;5.65;;;2.10;;
41927;SDS011;27616;51.420;6.788;2024-02-15T15:05:12;10.57;;;2.30;;
41927;SDS011;27616;51.420;6.788;2024-02-15T15:07:56;5.05;;;2.03;;
41927;SDS011;27616;51.420;6.788;2024-02-15T15:10:41;7.22;;;2.42;;